Time;durP1;ratioP1;P1;durP2;ratioP2;P2;SDS_P1;SDS_P2;PMS_P1;PMS_P2;Temp;Humidity;BMP_temperature;BMP_pressure;BME280_temperature;BME280_humidity;BME280_pressure;Samples;Min_cycle;Max_cycle;Signal;HPM_P1;HPM_P2
2022/02/02 00:00:19;;;;;;;57.13;11.82;;;;;;;10.48;62.29;99664.91;4891543;28;119733;-91
2022/02/02 00:02:51;;;;;;;59.72;13.80;;;;;;;10.51;61.42;99685.16;4894256;28;122849;-91
2022/02/02 00:05:28;;;;;;;56.87;11.30;;;;;;;10.43;61.40;99662.84;4892165;28;119877;-93
2022/02/02 00:13:00;;;;;;;45.75;10.48;;;;;;;10.17;61.24;99643.44;4889958;28;121127;-90
2022/02/02 00:15:41;;;;;;;46.30;10.25;;;;;;;10.15;62.04;99635.69;4893757;28;122798;-90
2022/02/02 00:20:54;;;;;;;56.80;11.77;;;;;;;10.31;61.39;99678.34;4898223;28;122023;-95
2022/02/02 00:23:25;;;;;;;58.58;11.10;;;;;;;10.18;61.43;99666.13;4877670;28;123319;-92
2022/02/02 00:26:00;;;;;;;54.13;11.10;;;;;;;10.28;61.55;99682.03;4892539;28;120003;-92
2022/02/02 00:28:41;;;;;;;55.08;10.88;;;;;;;10.03;60.70;99647.69;4896062;28;121775;-93
2022/02/02 00:31:14;;;;;;;52.97;10.25;;;;;;;10.48;60.83;99706.03;4894011;28;122864;-91
2022/02/02 00:33:58;;;;;;;42.50;9.07;;;;;;;9.99;60.82;99641.63;4902637;28;119960;-92
2022/02/02 00:36:30;;;;;;;45.92;8.95;;;;;;;10.43;60.84;99723.91;4896126;28;122489;-92
2022/02/02 00:38:56;;;;;;;58.67;12.13;;;;;;;10.27;60.56;99702.44;4893629;28;123042;-92
2022/02/02 00:41:27;;;;;;;48.17;9.70;;;;;;;10.20;59.88;99693.81;4874736;28;122197;-90
2022/02/02 00:43:59;;;;;;;43.88;8.32;;;;;;;10.11;59.87;99681.69;4886410;28;122764;-90
2022/02/02 00:46:27;;;;;;;44.78;8.85;;;;;;;10.19;59.64;99695.03;4887910;28;119931;-90
2022/02/02 00:48:59;;;;;;;47.85;9.52;;;;;;;10.47;59.67;99742.91;4890819;28;122307;-89
2022/02/02 00:51:41;;;;;;;47.15;8.95;;;;;;;10.42;59.39;99738.09;4878060;28;122309;-92
2022/02/02 00:54:07;;;;;;;40.28;8.93;;;;;;;10.29;59.78;99719.16;4874007;28;120032;-90
2022/02/02 00:56:33;;;;;;;42.75;11.45;;;;;;;10.46;60.18;99730.44;4888530;28;121475;-91
2022/02/02 00:58:59;;;;;;;41.20;9.00;;;;;;;10.38;60.52;99712.84;4886517;28;120858;-90
2022/02/02 01:01:25;;;;;;;46.13;10.20;;;;;;;10.40;60.49;99721.34;4880188;28;120148;-90
2022/02/02 01:03:53;;;;;;;55.28;10.70;;;;;;;10.51;61.02;99734.50;4891694;28;122200;-92
2022/02/02 01:06:21;;;;;;;45.42;8.85;;;;;;;10.58;61.28;99739.59;4908164;28;120174;-93
2022/02/02 01:17:11;;;;;;;47.75;9.10;;;;;;;10.13;62.59;99733.28;4908260;28;120014;-92
2022/02/02 01:22:13;;;;;;;;;;;;;;;;;;;;;
2022/02/02 01:29:50;;;;;;;44.13;9.10;;;;;;;9.86;64.41;99737.00;4886195;28;121156;-91
2022/02/02 01:32:16;;;;;;;46.63;8.63;;;;;;;9.97;64.66;99744.69;4887762;28;123154;-90
2022/02/02 01:34:42;;;;;;;55.25;9.68;;;;;;;9.79;64.64;99712.72;4894048;28;119788;-90
2022/02/02 01:37:07;;;;;;;53.75;10.50;;;;;;;9.94;64.38;99738.19;4872159;28;122511;-91
2022/02/02 01:39:34;;;;;;;55.47;9.82;;;;;;;9.95;64.71;99745.16;4894435;28;123445;-92
2022/02/02 01:42:02;;;;;;;69.15;10.55;;;;;;;10.05;64.99;99767.75;4910026;28;119692;-92
2022/02/02 01:44:40;;;;;;;59.45;10.30;;;;;;;10.09;64.71;99762.84;4876193;28;121767;-92
2022/02/02 01:47:08;;;;;;;50.75;8.68;;;;;;;9.84;65.18;99718.31;4889862;28;123079;-92
2022/02/02 02:00:00;;;;;;;34.72;7.72;;;;;;;9.84;63.99;99753.16;4907216;28;120395;-92
2022/02/02 02:02:26;;;;;;;34.85;7.13;;;;;;;9.77;63.98;99756.25;4890112;28;119561;-91
2022/02/02 02:04:52;;;;;;;36.15;6.45;;;;;;;9.75;63.76;99750.47;4907785;28;119463;-89
2022/02/02 02:07:17;;;;;;;35.97;6.82;;;;;;;9.68;63.02;99759.03;4881210;28;124343;-91
2022/02/02 02:09:43;;;;;;;37.53;6.68;;;;;;;9.62;64.65;99752.69;4903510;28;122038;-91
2022/02/02 02:12:11;;;;;;;35.83;6.47;;;;;;;9.66;63.85;99754.03;4903147;28;122908;-91
2022/02/02 02:17:04;;;;;;;36.00;7.03;;;;;;;9.54;64.12;99752.28;4889133;28;122425;-92
2022/02/02 02:19:29;;;;;;;39.38;7.80;;;;;;;9.74;64.10;99763.41;4887977;28;123250;-88
2022/02/02 02:21:55;;;;;;;40.05;8.15;;;;;;;9.59;64.27;99742.66;4885168;28;119919;-91
2022/02/02 02:24:22;;;;;;;41.55;7.50;;;;;;;9.68;64.15;99748.81;4890934;28;122614;-90
2022/02/02 02:26:48;;;;;;;41.40;8.50;;;;;;;9.68;63.96;99726.94;4907852;28;120456;-90
2022/02/02 02:55:56;;;;;;;40.17;8.27;;;;;;;10.03;63.61;99770.97;4912468;28;120148;-90
2022/02/02 03:31:17;;;;;;;;;;;;;;;10.00;61.98;99848.63;4909768;28;123136;-88
2022/02/02 03:55:50;;;;;;;25.17;5.70;;;;;;;9.92;61.85;99841.19;4891115;28;120581;-88
2022/02/02 04:06:23;;;;;;;31.20;4.88;;;;;;;9.88;61.02;99855.06;4877155;28;122207;-88
2022/02/02 04:08:49;;;;;;;31.90;5.57;;;;;;;9.86;60.90;99865.72;4895387;28;123352;-89
2022/02/02 04:11:26;;;;;;;28.45;5.85;;;;;;;9.81;61.26;99849.94;4894843;28;122307;-88
2022/02/02 04:38:41;;;;;;;26.83;5.43;;;;;;;9.64;59.87;99920.00;4913016;28;119903;-87
2022/02/02 04:58:08;;;;;;;34.67;6.45;;;;;;;9.84;60.24;99966.78;4888897;28;121242;-86
2022/02/02 05:08:48;;;;;;;32.72;6.40;;;;;;;9.83;59.80;99976.97;4890511;28;120127;-88
2022/02/02 05:17:02;;;;;;;33.92;6.35;;;;;;;9.74;60.37;99976.25;4892322;28;121246;-91
2022/02/02 05:51:55;;;;;;;43.58;7.80;;;;;;;9.75;58.68;100046.25;4904117;28;119543;-89
2022/02/02 05:54:20;;;;;;;37.10;7.75;;;;;;;9.76;59.35;100056.75;4892165;28;122754;-88
2022/02/02 05:56:51;;;;;;;37.10;7.47;;;;;;;9.70;58.32;100060.53;4907721;28;123681;-88
2022/02/02 05:59:23;;;;;;;36.83;7.60;;;;;;;9.75;59.65;100057.97;4902970;28;120139;-88
2022/02/02 06:01:59;;;;;;;37.95;6.85;;;;;;;9.67;58.18;100062.22;4897207;28;122296;-87
2022/02/02 06:04:29;;;;;;;33.72;6.97;;;;;;;9.68;57.72;100074.69;4905996;28;120235;-88
2022/02/02 06:06:56;;;;;;;30.58;7.03;;;;;;;9.61;57.13;100085.97;4894906;28;120523;-86
2022/02/02 06:09:25;;;;;;;31.42;6.20;;;;;;;9.63;57.34;100102.69;4891274;28;123928;-86
2022/02/02 06:11:53;;;;;;;28.10;6.22;;;;;;;9.61;58.24;100091.44;4913189;28;119979;-86
2022/02/02 06:14:23;;;;;;;30.75;6.45;;;;;;;9.61;58.14;100118.06;4908173;28;121911;-86
2022/02/02 06:16:54;;;;;;;32.67;6.57;;;;;;;9.54;57.43;100117.16;4887273;28;120395;-86
2022/02/02 06:19:19;;;;;;;31.58;7.03;;;;;;;9.51;57.21;100128.25;4896278;28;121736;-85
2022/02/02 06:22:03;;;;;;;30.58;6.75;;;;;;;9.55;57.04;100126.13;4893032;28;122053;-86
2022/02/02 06:24:33;;;;;;;32.42;5.95;;;;;;;9.58;57.14;100140.88;4904052;28;123813;-87
2022/02/02 06:27:10;;;;;;;28.70;5.95;;;;;;;9.57;57.86;100145.59;4892309;28;120440;-87
2022/02/02 06:29:44;;;;;;;22.90;5.50;;;;;;;9.45;56.58;100133.56;4895560;28;122099;-88
2022/02/02 06:32:14;;;;;;;26.25;5.68;;;;;;;9.44;56.38;100188.75;4895398;28;119624;-88
2022/02/02 06:34:44;;;;;;;30.52;6.15;;;;;;;9.45;56.64;100176.59;4892434;28;122343;-86
2022/02/02 06:37:11;;;;;;;35.97;5.88;;;;;;;9.18;56.59;100147.22;4898922;28;120340;-86
2022/02/02 06:39:38;;;;;;;31.38;6.60;;;;;;;9.52;56.48;100190.00;4891723;28;121286;-88
2022/02/02 06:42:10;;;;;;;34.65;7.53;;;;;;;9.25;57.33;100146.19;4895561;28;122089;-88
2022/02/02 06:44:43;;;;;;;30.67;5.53;;;;;;;9.48;57.43;100187.41;4895437;28;119811;-86
2022/02/02 06:47:09;;;;;;;30.40;6.85;;;;;;;9.53;57.16;100194.25;4908876;28;119484;-87
2022/02/02 06:49:36;;;;;;;32.50;6.07;;;;;;;9.58;57.74;100212.81;4878308;28;122781;-88
2022/02/02 06:52:29;;;;;;;30.83;6.70;;;;;;;9.54;58.19;100234.13;4906720;28;119518;-89
2022/02/02 06:55:12;;;;;;;31.58;6.57;;;;;;;9.55;57.28;100246.59;4910496;28;119810;-86
2022/02/02 06:57:55;;;;;;;26.58;5.40;;;;;;;9.59;58.37;100249.94;4892167;28;122885;-89
2022/02/02 07:00:37;;;;;;;34.38;6.82;;;;;;;9.64;57.82;100249.34;4897117;28;119858;-86
2022/02/02 07:03:34;;;;;;;34.38;6.40;;;;;;;9.57;57.10;100257.09;4891131;28;121267;-88
2022/02/02 07:07:11;;;;;;;31.05;6.25;;;;;;;9.42;57.05;100257.66;4911604;28;120544;-89
2022/02/02 07:14:48;;;;;;;;;;;;;;;;;;;;;
2022/02/02 07:22:25;;;;;;;26.92;6.20;;;;;;;9.43;55.75;100322.13;4906010;28;120193;-85
2022/02/02 07:32:46;;;;;;;30.23;5.55;;;;;;;9.28;55.52;100326.66;4905638;28;120059;-87
2022/02/02 07:38:12;;;;;;;26.27;5.63;;;;;;;9.43;55.20;100354.22;4897505;28;119820;-86
2022/02/02 07:40:45;;;;;;;27.02;6.00;;;;;;;9.40;55.18;100366.06;4890013;28;122813;-87
2022/02/02 07:43:27;;;;;;;28.50;6.57;;;;;;;9.38;55.33;100352.06;4874255;28;120561;-88
2022/02/02 07:46:14;;;;;;;32.80;5.95;;;;;;;9.43;54.90;100359.69;4906230;28;119786;-87
2022/02/02 07:48:41;;;;;;;32.00;5.97;;;;;;;9.40;54.29;100368.81;4873455;28;122999;-88
2022/02/02 07:51:08;;;;;;;30.75;6.03;;;;;;;9.46;54.64;100389.69;4903858;28;119813;-88
2022/02/02 07:53:45;;;;;;;30.05;6.10;;;;;;;9.49;54.53;100380.59;4889049;28;122300;-87
2022/02/02 07:56:15;;;;;;;31.80;6.03;;;;;;;9.48;53.92;100411.16;4904697;28;120283;-87
2022/02/02 07:58:45;;;;;;;32.03;5.97;;;;;;;9.50;53.79;100414.19;4889394;28;119710;-88
2022/02/02 08:01:13;;;;;;;30.00;5.72;;;;;;;9.37;54.30;100386.13;4910179;28;122455;-88
2022/02/02 08:03:51;;;;;;;34.42;6.90;;;;;;;9.46;54.23;100394.38;4889346;28;119436;-87
2022/02/02 08:06:22;;;;;;;33.65;5.97;;;;;;;9.41;54.29;100414.13;4906141;28;119887;-85
2022/02/02 08:08:50;;;;;;;35.05;6.60;;;;;;;9.39;53.88;100419.31;4889459;28;120703;-85
2022/02/02 08:11:25;;;;;;;34.58;7.00;;;;;;;9.51;54.22;100434.91;4890190;28;121065;-86
2022/02/02 08:13:55;;;;;;;28.50;6.35;;;;;;;9.56;54.13;100428.06;4893558;28;121931;-86
2022/02/02 08:16:22;;;;;;;35.20;6.30;;;;;;;9.49;53.99;100445.53;4883378;28;124365;-85
2022/02/02 08:18:50;;;;;;;29.63;6.45;;;;;;;9.57;54.43;100467.91;4887463;28;121516;-84
2022/02/02 08:21:16;;;;;;;31.02;6.30;;;;;;;9.54;54.18;100453.16;4890405;28;120126;-87
2022/02/02 08:23:42;;;;;;;36.00;7.43;;;;;;;9.61;54.06;100457.59;4886221;28;122912;-88
2022/02/02 08:26:13;;;;;;;33.85;6.97;;;;;;;9.65;54.15;100469.94;4882263;28;121224;-87
2022/02/02 08:28:40;;;;;;;29.83;6.75;;;;;;;9.68;56.06;100463.56;4888814;28;124063;-88
2022/02/02 08:31:09;;;;;;;40.10;6.88;;;;;;;9.84;56.33;100482.50;4920426;28;121291;-91
2022/02/02 08:33:38;;;;;;;47.55;8.13;;;;;;;9.88;55.58;100492.56;4871067;28;122620;-87
2022/02/02 08:36:09;;;;;;;37.28;7.10;;;;;;;9.88;56.84;100498.81;4901590;28;120045;-86
2022/02/02 08:38:50;;;;;;;35.88;7.30;;;;;;;9.92;59.05;100512.38;4871547;28;120673;-88
2022/02/02 08:41:29;;;;;;;33.15;6.28;;;;;;;9.99;57.58;100499.19;4901778;28;122239;-89
2022/02/02 08:44:03;;;;;;;37.78;7.78;;;;;;;10.07;57.17;100503.16;4886396;28;120601;-88
2022/02/02 08:46:39;;;;;;;;;;;;;;;10.09;57.30;100500.72;4907326;28;120370;-89
2022/02/02 08:49:08;;;;;;;34.88;6.65;;;;;;;10.03;56.83;100486.09;4904538;28;120465;-88
2022/02/02 08:51:40;;;;;;;34.15;6.75;;;;;;;10.22;57.56;100521.84;4918415;28;120244;-90
2022/02/02 08:59:36;;;;;;;30.45;6.40;;;;;;;10.15;56.44;100517.34;4886464;28;121864;-91
2022/02/02 09:02:07;;;;;;;36.22;7.28;;;;;;;10.10;56.67;100520.69;4867623;28;122502;-91
2022/02/02 09:05:33;;;;;;;28.70;6.30;;;;;;;10.06;56.55;100520.06;4887081;28;121213;-88
2022/02/02 09:07:28;;;;;;;30.73;5.80;;;;;;;10.02;56.60;100520.19;4878911;28;119965;-90
2022/02/02 09:10:02;;;;;;;29.00;5.68;;;;;;;10.09;56.19;100552.03;4870783;28;124092;-89
2022/02/02 09:23:29;;;;;;;30.92;6.30;;;;;;;10.25;56.86;100560.06;4903798;28;121128;-90
2022/02/02 09:31:30;;;;;;;31.33;6.22;;;;;;;10.27;55.37;100576.84;4888277;28;122619;-90
2022/02/02 09:34:02;;;;;;;31.23;6.00;;;;;;;10.33;56.42;100580.50;4904275;28;119958;-86
2022/02/02 09:36:31;;;;;;;29.52;5.28;;;;;;;10.38;56.35;100592.84;4904549;28;119795;-89
2022/02/02 09:39:00;;;;;;;27.95;5.75;;;;;;;10.35;55.63;100597.28;4901652;28;121168;-89
2022/02/02 09:44:09;;;;;;;28.58;5.50;;;;;;;10.39;55.00;100619.81;4889379;28;123110;-90
2022/02/02 09:49:15;;;;;;;25.85;5.57;;;;;;;10.42;54.97;100616.22;4905279;28;120289;-88
2022/02/02 09:51:49;;;;;;;34.42;6.13;;;;;;;10.52;54.76;100632.69;4892180;28;122220;-85
2022/02/02 09:54:24;;;;;;;24.88;5.70;;;;;;;10.45;54.67;100623.53;4908190;28;121729;-90
2022/02/02 10:02:32;;;;;;;28.70;5.63;;;;;;;10.33;53.98;100635.34;4889362;28;120088;-88
2022/02/02 10:10:33;;;;;;;;;;;;;;;;;;;;;
2022/02/02 10:15:25;;;;;;;23.90;4.30;;;;;;;10.43;55.36;100683.53;4912656;28;121397;-89
2022/02/02 10:18:02;;;;;;;17.15;3.90;;;;;;;10.51;53.82;100686.00;4901442;28;119954;-89
2022/02/02 10:20:29;;;;;;;19.90;4.38;;;;;;;10.50;53.53;100698.19;4904156;28;123162;-90
2022/02/02 10:22:57;;;;;;;18.83;4.20;;;;;;;10.47;54.22;100688.13;4893372;28;120019;-89
2022/02/02 10:25:43;;;;;;;24.42;4.38;;;;;;;10.45;53.22;100670.16;4926342;28;119972;-88
2022/02/02 10:28:12;;;;;;;18.23;4.03;;;;;;;10.61;53.68;100704.03;4905919;28;123097;-88
2022/02/02 10:30:40;;;;;;;23.88;4.55;;;;;;;10.61;53.19;100704.78;4874751;28;119834;-88
2022/02/02 10:33:11;;;;;;;18.15;4.28;;;;;;;10.61;54.48;100706.78;4926856;28;121384;-90
2022/02/02 10:35:39;;;;;;;26.67;4.68;;;;;;;10.50;53.10;100692.72;4890093;28;120409;-89
2022/02/02 10:38:21;;;;;;;22.70;4.05;;;;;;;10.67;52.75;100735.94;4891606;28;122607;-88
2022/02/02 10:40:53;;;;;;;19.88;4.60;;;;;;;10.67;52.32;100743.41;4910901;28;119875;-86
2022/02/02 10:43:39;;;;;;;22.73;4.00;;;;;;;10.65;51.70;100737.59;4857606;28;120232;-88
2022/02/02 10:46:07;;;;;;;17.70;3.75;;;;;;;10.66;52.54;100745.38;4889021;28;122848;-86
2022/02/02 10:48:39;;;;;;;17.95;4.00;;;;;;;10.65;51.97;100729.38;4897732;28;123255;-88
2022/02/02 10:51:12;;;;;;;18.10;3.97;;;;;;;10.66;52.71;100728.16;4889644;28;119919;-88
2022/02/02 10:53:59;;;;;;;20.75;4.10;;;;;;;10.71;52.80;100733.81;4902786;28;119772;-88
2022/02/02 11:06:35;;;;;;;;;;;;;;;;;;;;;
2022/02/02 11:06:58;;;;;;;17.50;3.85;;;;;;;10.99;52.46;100759.41;4881253;28;121907;-87
2022/02/02 11:09:24;;;;;;;19.55;3.38;;;;;;;11.01;51.58;100778.16;4904538;28;120454;-89
2022/02/02 11:11:53;;;;;;;17.58;3.90;;;;;;;11.01;51.46;100784.41;4889634;28;120409;-86
2022/02/02 11:14:38;;;;;;;13.77;3.20;;;;;;;11.03;50.67;100784.72;4883252;28;120921;-88
2022/02/02 11:17:20;;;;;;;15.63;3.47;;;;;;;11.17;52.16;100791.66;4894904;28;123138;-89
2022/02/02 11:19:49;;;;;;;16.65;3.47;;;;;;;11.20;53.14;100779.78;4905569;28;120400;-88
2022/02/02 11:22:39;;;;;;;18.42;3.95;;;;;;;11.47;52.94;100809.31;4905513;28;120109;-84
2022/02/02 11:25:05;;;;;;;18.85;5.07;;;;;;;11.53;51.90;100798.50;4891649;28;121092;-86
2022/02/02 11:27:38;;;;;;;21.13;3.67;;;;;;;11.46;50.72;100788.56;4906924;28;119935;-89
2022/02/02 11:30:08;;;;;;;21.65;4.28;;;;;;;11.41;52.20;100794.66;4905558;28;120000;-89
2022/02/02 11:32:45;;;;;;;19.23;3.53;;;;;;;11.41;50.49;100818.59;4891012;28;119944;-88
2022/02/02 11:35:39;;;;;;;19.92;3.63;;;;;;;11.30;50.62;100819.00;4891319;28;120693;-88
2022/02/02 11:38:17;;;;;;;13.80;2.85;;;;;;;11.17;50.33;100799.91;4889354;28;123344;-88
2022/02/02 11:43:58;;;;;;;19.42;3.50;;;;;;;11.02;50.69;100802.41;4893405;28;122737;-89
2022/02/02 11:49:51;;;;;;;11.02;2.80;;;;;;;11.07;52.05;100810.06;4896166;28;119764;-89
2022/02/02 11:52:45;;;;;;;17.23;3.20;;;;;;;11.04;49.75;100805.47;4886335;28;122669;-89
2022/02/02 11:55:10;;;;;;;20.33;3.60;;;;;;;11.02;51.47;100810.66;4905322;28;120219;-89
2022/02/02 11:57:56;;;;;;;15.05;3.22;;;;;;;11.07;51.15;100815.56;4891657;28;122347;-88
2022/02/02 12:06:05;;;;;;;15.73;3.38;;;;;;;11.18;49.99;100839.88;4890855;28;122473;-87
2022/02/02 12:49:22;;;;;;;11.65;2.72;;;;;;;11.25;46.95;100900.00;4905306;28;122523;-90
2022/02/02 12:57:32;;;;;;;13.15;2.95;;;;;;;11.21;46.82;100909.59;4903700;28;122471;-90
2022/02/02 13:00:12;;;;;;;9.43;2.30;;;;;;;11.16;46.81;100899.19;4905944;28;121447;-88
2022/02/02 13:02:41;;;;;;;14.25;3.08;;;;;;;11.16;45.76;100921.91;4876432;28;119943;-90
2022/02/02 13:05:09;;;;;;;11.43;2.83;;;;;;;10.76;45.98;100875.13;4889337;28;124903;-91
2022/02/02 13:07:37;;;;;;;14.13;2.75;;;;;;;11.05;47.30;100921.53;4890006;28;119827;-88
2022/02/02 13:10:07;;;;;;;15.23;2.67;;;;;;;11.04;47.11;100917.25;4891159;28;122266;-89
2022/02/02 13:16:00;;;;;;;13.68;2.83;;;;;;;11.01;48.32;100901.69;4887430;28;119844;-90
2022/02/02 13:26:20;;;;;;;16.67;2.97;;;;;;;11.20;48.27;100952.75;4893778;28;119752;-91
2022/02/02 13:28:55;;;;;;;14.38;3.22;;;;;;;11.31;48.91;100955.09;4905918;28;120404;-87
2022/02/02 13:31:36;;;;;;;16.60;3.03;;;;;;;11.34;48.94;100959.69;4904497;28;122348;-90
2022/02/02 13:34:13;;;;;;;16.25;3.28;;;;;;;11.41;48.43;100962.19;4889528;28;120619;-86
2022/02/02 13:51:05;;;;;;;;;;;;;;;11.57;48.50;100974.94;4872679;28;119560;-88
2022/02/02 14:09:23;;;;;;;16.80;3.78;;;;;;;11.31;48.65;101002.56;4903225;28;122409;-88
2022/02/02 14:33:36;;;;;;;16.88;3.83;;;;;;;11.14;49.78;101038.91;4886817;28;123573;-89
2022/02/02 14:36:04;;;;;;;15.30;2.92;;;;;;;11.13;49.84;101049.13;4877322;28;120803;-86
2022/02/02 14:38:38;;;;;;;17.52;3.28;;;;;;;11.12;49.05;101072.28;4891785;28;122709;-86
2022/02/02 14:41:19;;;;;;;22.95;4.00;;;;;;;11.03;49.05;101075.69;4889515;28;120359;-86
2022/02/02 14:43:58;;;;;;;13.90;3.15;;;;;;;10.88;49.38;101057.41;4888824;28;122285;-85
2022/02/02 14:46:50;;;;;;;15.43;3.17;;;;;;;10.90;49.44;101049.50;4894318;28;119896;-86
2022/02/02 14:49:22;;;;;;;22.63;3.42;;;;;;;10.89;49.56;101067.97;4913627;28;119606;-86
2022/02/02 15:05:20;;;;;;;22.90;5.07;;;;;;;10.74;48.87;101064.13;4894883;28;119812;-85
2022/02/02 15:27:52;;;;;;;15.55;3.20;;;;;;;10.69;49.56;101139.53;4893686;28;120691;-84
2022/02/02 15:32:59;;;;;;;21.58;3.03;;;;;;;10.68;50.15;101157.22;4876768;28;120685;-86
2022/02/02 15:35:27;;;;;;;21.67;3.40;;;;;;;10.69;50.60;101157.97;4902652;28;122761;-86
2022/02/02 15:38:05;;;;;;;19.05;3.55;;;;;;;10.75;49.61;101167.19;4890880;28;121661;-86
2022/02/02 15:40:35;;;;;;;18.02;3.33;;;;;;;10.65;50.21;101151.84;4890311;28;120167;-86
2022/02/02 16:02:15;;;;;;;18.67;3.60;;;;;;;10.32;52.14;101182.19;4888441;28;120213;-87
2022/02/02 16:04:41;;;;;;;18.17;3.35;;;;;;;10.39;51.06;101194.91;4877590;28;122871;-86
2022/02/02 16:07:10;;;;;;;18.52;3.75;;;;;;;10.27;51.04;101171.00;4896384;28;123204;-86
2022/02/02 16:12:40;;;;;;;19.73;3.90;;;;;;;10.19;50.77;101181.38;4899430;28;122779;-86
2022/02/02 16:15:16;;;;;;;19.60;3.92;;;;;;;10.14;50.80;101179.16;4874903;28;120420;-86
2022/02/02 16:34:37;;;;;;;;;;;;;;;10.15;52.27;101219.06;4898400;28;122223;-86
2022/02/02 16:36:43;;;;;;;23.05;3.85;;;;;;;10.14;53.29;101223.00;4889539;28;119524;-86
2022/02/02 16:39:17;;;;;;;22.08;4.47;;;;;;;10.09;53.09;101221.56;4888846;28;121595;-87
2022/02/02 16:44:26;;;;;;;24.40;3.92;;;;;;;10.12;52.80;101241.84;4893504;28;119641;-86
2022/02/02 16:46:52;;;;;;;20.60;3.90;;;;;;;10.06;52.72;101244.38;4873584;28;122608;-87
2022/02/02 16:49:19;;;;;;;21.45;4.30;;;;;;;10.03;53.24;101245.25;4901541;28;123314;-86
2022/02/02 16:51:45;;;;;;;25.83;4.72;;;;;;;9.95;53.21;101232.16;4889840;28;120156;-87
2022/02/02 18:20:13;;;;;;;23.98;5.10;;;;;;;9.57;54.66;101268.34;4895535;28;122280;-89
2022/02/02 18:22:47;;;;;;;25.08;6.35;;;;;;;9.44;54.44;101254.56;4891341;28;123502;-88
2022/02/02 18:25:22;;;;;;;24.05;5.78;;;;;;;9.40;55.04;101264.81;4902051;28;119805;-88
2022/02/02 18:27:57;;;;;;;27.98;5.80;;;;;;;9.27;54.89;101252.25;4893487;28;120789;-89
2022/02/02 18:35:49;;;;;;;26.63;5.15;;;;;;;9.38;55.16;101280.13;4892515;28;123414;-89
2022/02/02 18:39:44;;;;;;;;;;;;;;;9.35;55.50;101289.22;4917956;28;119474;-84
2022/02/02 18:49:41;;;;;;;39.17;11.20;;;;;;;9.26;55.60;101254.22;4894162;28;122265;-86
2022/02/02 18:57:58;;;;;;;31.85;8.80;;;;;;;9.30;55.46;101259.63;4901121;28;119728;-88
2022/02/02 19:40:36;;;;;;;25.23;4.85;;;;;;;8.93;56.52;101265.13;4894409;28;122172;-87
2022/02/02 20:08:05;;;;;;;29.45;5.75;;;;;;;9.52;59.02;101266.91;4911877;28;119824;-88
2022/02/02 20:11:17;;;;;;;29.30;6.22;;;;;;;9.55;58.56;101254.31;4889672;28;123081;-87
2022/02/02 20:13:16;;;;;;;26.08;5.45;;;;;;;9.70;58.97;101269.19;4887580;28;119693;-88
2022/02/02 20:15:42;;;;;;;29.02;6.22;;;;;;;9.67;59.44;101255.56;4893309;28;121865;-85
2022/02/02 20:18:09;;;;;;;27.73;5.85;;;;;;;9.82;59.69;101265.75;4875817;28;125137;-85
2022/02/02 20:20:40;;;;;;;32.53;5.32;;;;;;;10.00;60.44;101261.78;4861967;28;122854;-86
2022/02/02 20:23:07;;;;;;;33.10;5.40;;;;;;;9.95;60.12;101241.16;4900163;28;119970;-85
2022/02/02 20:25:34;;;;;;;35.45;6.07;;;;;;;10.15;60.34;101263.69;4881414;28;122864;-85
2022/02/02 20:28:05;;;;;;;28.35;5.47;;;;;;;10.13;59.63;101259.84;4904865;28;119951;-84
2022/02/02 20:30:36;;;;;;;29.00;5.25;;;;;;;10.16;60.91;101259.75;4883668;28;124348;-87
2022/02/02 20:33:03;;;;;;;34.78;6.47;;;;;;;10.32;59.87;101280.91;4884338;28;121268;-84
2022/02/02 20:35:29;;;;;;;32.67;5.90;;;;;;;10.34;59.63;101272.22;4863562;28;120427;-85
2022/02/02 20:37:55;;;;;;;29.42;5.65;;;;;;;10.39;59.36;101277.19;4896552;28;122808;-87
2022/02/02 20:40:22;;;;;;;26.92;5.35;;;;;;;10.28;60.11;101243.81;4884170;28;119839;-86
2022/02/02 21:14:37;;;;;;;27.92;5.82;;;;;;;10.37;59.44;101231.00;4886361;28;124290;-86
2022/02/02 21:17:06;;;;;;;32.10;5.57;;;;;;;10.44;59.59;101244.53;4884496;28;122189;-86
2022/02/02 21:19:43;;;;;;;28.33;5.38;;;;;;;10.41;60.02;101247.38;4879966;28;119904;-86
2022/02/02 21:22:09;;;;;;;28.05;5.22;;;;;;;10.32;59.82;101239.00;4875457;28;119710;-87
2022/02/02 21:25:06;;;;;;;32.00;5.63;;;;;;;10.29;59.59;101246.13;4882402;28;122432;-86
2022/02/02 21:27:40;;;;;;;23.65;5.35;;;;;;;10.21;59.79;101235.78;4897497;28;123306;-86
2022/02/02 21:30:08;;;;;;;30.25;6.00;;;;;;;10.20;59.93;101226.78;4898201;28;120525;-85
2022/02/02 21:32:34;;;;;;;34.53;7.57;;;;;;;10.21;59.98;101228.34;4869153;28;121430;-86
2022/02/02 21:35:05;;;;;;;38.50;7.95;;;;;;;10.13;60.29;101230.47;4880139;28;123134;-86
2022/02/02 21:37:33;;;;;;;28.00;6.70;;;;;;;10.13;60.05;101237.91;4903127;28;120068;-88
2022/02/02 21:40:16;;;;;;;29.70;7.20;;;;;;;10.11;60.49;101241.09;4899219;28;122840;-87
2022/02/02 21:42:44;;;;;;;32.00;5.83;;;;;;;10.09;60.66;101237.25;4901009;28;121986;-87
2022/02/02 21:45:10;;;;;;;44.05;7.53;;;;;;;10.09;60.48;101234.50;4880298;28;121485;-85
2022/02/02 21:47:36;;;;;;;30.33;6.43;;;;;;;10.05;60.21;101225.63;4883934;28;123004;-88
2022/02/02 21:50:07;;;;;;;33.40;7.03;;;;;;;10.03;60.75;101222.53;4886274;28;119687;-89
2022/02/02 21:52:33;;;;;;;30.98;6.93;;;;;;;9.99;60.62;101221.88;4884613;28;119863;-92
2022/02/02 21:54:59;;;;;;;36.92;6.85;;;;;;;9.96;60.98;101218.03;4885209;28;123242;-89
2022/02/02 21:57:24;;;;;;;34.53;7.13;;;;;;;9.94;61.18;101216.94;4899102;28;119675;-91
2022/02/02 21:59:50;;;;;;;31.02;5.88;;;;;;;9.91;61.40;101220.50;4889621;28;121939;-91
2022/02/02 22:02:16;;;;;;;36.10;6.20;;;;;;;9.86;61.48;101210.84;4862570;28;119814;-88
2022/02/02 22:04:41;;;;;;;33.03;6.28;;;;;;;9.91;61.51;101223.25;4871827;28;122704;-86
2022/02/02 22:07:07;;;;;;;29.23;5.25;;;;;;;10.03;61.83;101226.06;4880626;28;121838;-84
2022/02/02 22:09:33;;;;;;;29.25;4.80;;;;;;;9.98;61.54;101209.38;4868087;28;119579;-89
2022/02/02 22:11:59;;;;;;;27.30;5.07;;;;;;;10.04;62.17;101222.09;4870334;28;120495;-89
2022/02/02 22:14:25;;;;;;;29.55;5.28;;;;;;;10.02;62.35;101215.53;4894185;28;119983;-86
2022/02/02 22:16:52;;;;;;;38.30;5.53;;;;;;;10.09;61.88;101229.78;4901890;28;119729;-88
2022/02/02 22:19:18;;;;;;;35.15;5.78;;;;;;;10.11;61.97;101223.88;4901029;28;119855;-87
2022/02/02 22:21:44;;;;;;;32.40;6.03;;;;;;;10.00;62.23;101207.75;4885720;28;127518;-87
2022/02/02 22:24:11;;;;;;;31.40;6.28;;;;;;;10.09;61.80;101216.09;4886351;28;119935;-86
2022/02/02 22:26:37;;;;;;;35.78;6.10;;;;;;;10.11;61.59;101212.91;4864668;28;122776;-84
2022/02/02 22:29:03;;;;;;;33.95;6.57;;;;;;;10.10;62.01;101211.38;4868955;28;119873;-87
2022/02/02 22:31:31;;;;;;;34.60;5.95;;;;;;;10.19;62.17;101229.94;4883468;28;119973;-86
2022/02/02 22:33:57;;;;;;;36.10;6.07;;;;;;;10.22;62.92;101227.13;4859108;28;122638;-88
2022/02/02 22:36:23;;;;;;;34.83;6.07;;;;;;;10.25;62.80;101222.75;4901393;28;120310;-87
2022/02/02 22:38:49;;;;;;;34.20;5.70;;;;;;;10.22;62.84;101224.41;4885420;28;120927;-86
2022/02/02 22:41:15;;;;;;;34.33;5.68;;;;;;;10.31;62.62;101231.97;4888932;28;120016;-86
2022/02/02 22:43:47;;;;;;;35.53;5.70;;;;;;;10.35;62.58;101232.63;4887815;28;121847;-83
2022/02/02 22:46:14;;;;;;;31.83;6.38;;;;;;;10.30;62.22;101217.50;4885805;28;122961;-89
2022/02/02 22:48:40;;;;;;;30.10;5.68;;;;;;;10.30;62.97;101219.47;4902944;28;119592;-89
2022/02/02 22:51:06;;;;;;;31.88;6.32;;;;;;;10.37;62.94;101219.25;4882447;28;122105;-89
2022/02/02 22:53:32;;;;;;;31.98;6.47;;;;;;;10.37;62.46;101214.53;4891060;28;124224;-88
2022/02/02 22:55:58;;;;;;;30.60;5.90;;;;;;;10.42;62.36;101219.50;4886426;28;120678;-85
2022/02/02 22:58:23;;;;;;;27.48;5.57;;;;;;;10.37;62.25;101208.28;4903505;28;122099;-86
2022/02/02 23:00:49;;;;;;;34.05;5.53;;;;;;;10.52;62.26;101216.88;4886290;28;122902;-85
2022/02/02 23:03:19;;;;;;;30.92;5.72;;;;;;;10.44;62.19;101195.16;4877264;28;125450;-86